Gorno-Altaysk, Russia
Current Conditions -  °F | °C
As of 11:30 AM on Sunday 23 Nov 2014 (Local Time) from UNBB Reporting Station
Blowing Snow Blowing Snow  
Wind Chill: 10°   Ceiling: 4500
Heat Index: 25°   Visibility: 6mi
Dew Point: 16°   Wind: 20mph
Humidity: 69%   Direction: 210°SSW
Pressure: 29.83"   Gusts: NA
Location:  51.96°N, 85.96°E
Report Text: UNBB 230430Z 21009MPS 9999 DRSN BKN045 M04/M09 Q1010 NOSIG RMKQFE735/0980 24800550
Loading
Personal Weather Stations






























Interactive Weather Map New forecast layout! Learn more

10-Day Weather Forecast

Advertisements
Track Severe Weather on mobile